Time;durP1;ratioP1;P1;durP2;ratioP2;P2;SDS_P1;SDS_P2;PMS_P1;PMS_P2;Temp;Humidity;BMP_temperature;BMP_pressure;BME280_temperature;BME280_humidity;BME280_pressure;Samples;Min_cycle;Max_cycle;Signal;HPM_P1;HPM_P2
2021/07/18 00:02:38;;;;;;;12.20;6.05;;;;;;;26.66;100.00;100186.81;5016828;28;20026;-70
2021/07/18 00:05:24;;;;;;;9.15;6.00;;;;;;;26.26;100.00;100181.53;5002019;28;20148;-70
2021/07/18 00:08:10;;;;;;;12.45;6.57;;;;;;;25.94;100.00;100197.00;5017224;28;20034;-70
2021/07/18 00:10:56;;;;;;;9.77;7.05;;;;;;;25.78;100.00;100182.34;5004032;28;20029;-69
2021/07/18 00:13:42;;;;;;;13.65;7.13;;;;;;;26.07;100.00;100172.56;5016692;28;20032;-70
2021/07/18 00:16:27;;;;;;;10.40;7.45;;;;;;;25.83;100.00;100183.63;5003416;28;20434;-70
2021/07/18 00:19:13;;;;;;;13.40;7.22;;;;;;;25.72;100.00;100174.84;5017486;28;20049;-70
2021/07/18 00:21:59;;;;;;;12.30;7.28;;;;;;;25.43;100.00;100181.91;5016636;28;20029;-70
2021/07/18 00:24:45;;;;;;;19.20;7.40;;;;;;;25.48;100.00;100177.81;5016498;28;20034;-70
2021/07/18 00:27:30;;;;;;;16.48;7.82;;;;;;;25.78;100.00;100179.66;5016652;28;20022;-70
2021/07/18 00:30:16;;;;;;;11.75;7.88;;;;;;;25.48;100.00;100180.50;5015921;28;20018;-70
2021/07/18 00:33:04;;;;;;;16.33;8.43;;;;;;;25.10;100.00;100180.28;5016707;28;20438;-70
2021/07/18 00:35:50;;;;;;;11.38;8.25;;;;;;;25.31;100.00;100183.81;5016897;28;20040;-70
2021/07/18 00:38:35;;;;;;;18.55;8.75;;;;;;;25.13;100.00;100181.84;5015988;28;20025;-70
2021/07/18 00:41:21;;;;;;;15.10;9.07;;;;;;;25.38;100.00;100181.44;5016092;28;20026;-70
2021/07/18 00:44:08;;;;;;;16.52;8.73;;;;;;;25.11;100.00;100181.97;5016661;28;20096;-70
2021/07/18 00:46:53;;;;;;;17.60;8.25;;;;;;;25.26;100.00;100177.97;5015494;28;20093;-70
2021/07/18 00:49:39;;;;;;;12.88;8.55;;;;;;;25.23;100.00;100180.06;5002886;28;20108;-70
2021/07/18 00:52:25;;;;;;;12.45;7.70;;;;;;;25.24;100.00;100174.56;5016144;28;20034;-70
2021/07/18 00:55:12;;;;;;;18.67;8.35;;;;;;;25.19;100.00;100178.63;5015648;28;20030;-70
2021/07/18 00:57:58;;;;;;;12.98;8.02;;;;;;;25.08;100.00;100173.34;5015641;28;20037;-70
2021/07/18 01:00:44;;;;;;;11.82;8.00;;;;;;;24.98;100.00;100169.72;5015713;28;20029;-70
2021/07/18 01:03:30;;;;;;;13.15;8.07;;;;;;;25.19;100.00;100173.28;5016599;28;20026;-70
2021/07/18 01:06:16;;;;;;;13.60;8.02;;;;;;;25.19;100.00;100160.69;5016428;28;20362;-70
2021/07/18 01:09:03;;;;;;;14.85;8.27;;;;;;;25.05;100.00;100170.91;5016590;28;20041;-70
2021/07/18 01:11:49;;;;;;;13.13;8.32;;;;;;;25.04;100.00;100169.22;5016310;28;20041;-70
2021/07/18 01:14:35;;;;;;;16.92;8.57;;;;;;;25.00;100.00;100165.94;5016370;28;20464;-69
2021/07/18 01:17:20;;;;;;;22.17;8.82;;;;;;;24.80;100.00;100168.63;5014972;28;20417;-70
2021/07/18 01:20:11;;;;;;;19.10;9.02;;;;;;;24.98;100.00;100169.72;5014921;28;20129;-70
2021/07/18 01:22:57;;;;;;;15.55;8.35;;;;;;;25.09;100.00;100169.66;5014880;28;20402;-70
2021/07/18 01:25:43;;;;;;;17.48;8.80;;;;;;;24.62;100.00;100172.84;5014386;28;20040;-70
2021/07/18 01:28:29;;;;;;;16.73;9.20;;;;;;;24.83;100.00;100171.06;5015974;28;20025;-70
2021/07/18 01:31:16;;;;;;;23.23;9.07;;;;;;;24.97;100.00;100176.06;5015082;28;20030;-70
2021/07/18 01:34:01;;;;;;;20.98;9.40;;;;;;;25.01;100.00;100172.16;5015836;28;20450;-70
2021/07/18 01:36:47;;;;;;;14.48;9.52;;;;;;;24.72;100.00;100177.31;5015951;28;20036;-70
2021/07/18 01:39:33;;;;;;;24.15;9.73;;;;;;;24.76;100.00;100175.22;5014652;28;20453;-70
2021/07/18 01:42:20;;;;;;;16.20;9.32;;;;;;;24.61;100.00;100182.72;5015737;28;20037;-70
2021/07/18 01:45:06;;;;;;;19.00;9.52;;;;;;;24.07;100.00;100187.22;5003144;28;20030;-70
2021/07/18 01:47:52;;;;;;;16.52;10.65;;;;;;;24.08;100.00;100193.44;5015196;28;20382;-70
2021/07/18 01:50:38;;;;;;;16.60;10.68;;;;;;;24.12;100.00;100189.53;5016329;28;20072;-70
2021/07/18 01:53:24;;;;;;;17.85;10.55;;;;;;;24.15;100.00;100187.44;5014973;28;20037;-70
2021/07/18 01:56:09;;;;;;;22.30;10.90;;;;;;;23.79;100.00;100194.91;5015565;28;20413;-70
2021/07/18 01:58:56;;;;;;;19.35;11.05;;;;;;;24.01;100.00;100189.53;5015024;28;20056;-70
2021/07/18 02:01:42;;;;;;;22.80;11.32;;;;;;;23.95;100.00;100193.56;5001859;28;20106;-70
2021/07/18 02:04:28;;;;;;;15.00;10.98;;;;;;;23.84;100.00;100198.06;5014392;28;20413;-70
2021/07/18 02:07:16;;;;;;;19.10;11.73;;;;;;;23.70;100.00;100195.63;5015368;28;20030;-70
2021/07/18 02:10:03;;;;;;;15.52;10.57;;;;;;;23.63;100.00;100197.09;5014421;28;20029;-70
2021/07/18 02:12:49;;;;;;;16.67;10.65;;;;;;;24.03;100.00;100206.34;5015748;28;20334;-70
2021/07/18 02:15:35;;;;;;;16.02;11.55;;;;;;;23.82;100.00;100200.84;5014909;28;20096;-70
2021/07/18 02:18:21;;;;;;;16.45;11.45;;;;;;;23.52;100.00;100205.09;5014838;28;20061;-70
2021/07/18 02:21:07;;;;;;;19.83;10.93;;;;;;;23.87;100.00;100209.34;5015471;28;20350;-70
2021/07/18 02:23:53;;;;;;;15.27;11.02;;;;;;;23.92;100.00;100211.69;5014785;28;20034;-70
2021/07/18 02:26:38;;;;;;;19.65;11.23;;;;;;;24.11;100.00;100211.94;5014829;28;20026;-70
2021/07/18 02:29:24;;;;;;;17.15;10.80;;;;;;;24.20;100.00;100208.50;5014641;28;20084;-69
2021/07/18 02:32:10;;;;;;;14.77;10.80;;;;;;;23.90;100.00;100216.31;5015337;28;20036;-70
2021/07/18 02:34:56;;;;;;;16.25;11.18;;;;;;;23.86;100.00;100209.50;5014685;28;20029;-70
2021/07/18 02:37:44;;;;;;;16.75;9.50;;;;;;;24.14;100.00;100206.34;5017842;28;20025;-70
2021/07/18 02:40:30;;;;;;;17.08;9.70;;;;;;;24.21;100.00;100215.53;5019187;28;20030;-70
2021/07/18 02:43:15;;;;;;;17.10;10.20;;;;;;;23.91;100.00;100212.66;5018632;28;20037;-70
2021/07/18 02:46:01;;;;;;;13.90;10.23;;;;;;;23.41;100.00;100219.31;5018517;28;20553;-70
2021/07/18 02:48:47;;;;;;;15.27;9.93;;;;;;;23.52;100.00;100218.47;5019141;28;20045;-70
2021/07/18 02:51:33;;;;;;;18.65;10.48;;;;;;;23.70;100.00;100217.88;5018640;28;20063;-70
2021/07/18 02:54:20;;;;;;;17.73;9.93;;;;;;;23.86;100.00;100215.69;5019006;28;20514;-70
2021/07/18 02:57:06;;;;;;;18.02;11.25;;;;;;;23.78;100.00;100219.97;5003827;28;20099;-69
2021/07/18 02:59:51;;;;;;;18.88;11.25;;;;;;;23.35;100.00;100228.66;5018454;28;20489;-69
2021/07/18 03:02:37;;;;;;;16.98;10.88;;;;;;;23.52;100.00;100230.88;5018655;28;20100;-69
2021/07/18 03:05:23;;;;;;;17.40;11.30;;;;;;;23.75;100.00;100233.56;5017997;28;20025;-70
2021/07/18 03:08:09;;;;;;;24.67;11.65;;;;;;;23.26;100.00;100228.50;5018403;28;20026;-69
2021/07/18 03:10:55;;;;;;;14.95;11.38;;;;;;;23.87;100.00;100228.06;5018052;28;20440;-69
2021/07/18 03:13:40;;;;;;;18.45;11.60;;;;;;;23.81;100.00;100233.06;5018687;28;20025;-69
2021/07/18 03:16:26;;;;;;;20.58;10.93;;;;;;;23.87;100.00;100233.44;5004091;28;20029;-70
2021/07/18 03:19:12;;;;;;;20.13;11.02;;;;;;;23.80;100.00;100234.06;5017885;28;20061;-69
2021/07/18 03:21:58;;;;;;;19.67;11.45;;;;;;;23.95;100.00;100236.38;5017372;28;20030;-70
2021/07/18 03:24:43;;;;;;;16.23;10.98;;;;;;;24.16;100.00;100237.34;5017457;28;20408;-70
2021/07/18 03:27:29;;;;;;;24.08;10.90;;;;;;;24.04;100.00;100229.44;5017202;28;20113;-70
2021/07/18 03:30:17;;;;;;;19.98;10.25;;;;;;;24.35;100.00;100231.34;5018188;28;20026;-70
2021/07/18 03:33:03;;;;;;;22.90;10.20;;;;;;;24.40;100.00;100237.19;5017979;28;20018;-70
2021/07/18 03:35:49;;;;;;;13.95;9.50;;;;;;;24.27;100.00;100241.84;5017670;28;20029;-70
2021/07/18 03:38:35;;;;;;;13.60;9.00;;;;;;;24.72;100.00;100238.09;5017046;28;20108;-70
2021/07/18 03:41:20;;;;;;;15.52;9.35;;;;;;;24.59;100.00;100238.22;5017479;28;20109;-70
2021/07/18 03:44:06;;;;;;;15.85;9.27;;;;;;;24.71;100.00;100242.59;5018261;28;20513;-70
2021/07/18 03:46:52;;;;;;;17.33;9.52;;;;;;;24.80;100.00;100249.03;5017275;28;20029;-70
2021/07/18 03:49:38;;;;;;;18.23;9.43;;;;;;;24.49;100.00;100244.44;5003952;28;20457;-70
2021/07/18 03:52:23;;;;;;;13.60;8.65;;;;;;;24.87;100.00;100248.38;5017607;28;20022;-69
2021/07/18 03:55:09;;;;;;;16.27;8.80;;;;;;;24.89;100.00;100246.44;5016997;28;20091;-70
2021/07/18 03:57:55;;;;;;;10.30;8.40;;;;;;;24.63;100.00;100245.06;5016901;28;20030;-69
2021/07/18 04:00:41;;;;;;;13.73;9.23;;;;;;;24.60;100.00;100250.66;5004752;28;20058;-70
2021/07/18 04:03:27;;;;;;;12.45;8.60;;;;;;;24.46;100.00;100250.06;5016451;28;20029;-70
2021/07/18 04:06:17;;;;;;;14.32;8.93;;;;;;;24.84;100.00;100245.09;5017717;28;20037;-70
2021/07/18 04:09:03;;;;;;;18.38;8.48;;;;;;;24.88;100.00;100247.41;5016681;28;20022;-69
2021/07/18 04:11:48;;;;;;;10.65;8.20;;;;;;;25.07;100.00;100249.41;5016939;28;20438;-69
2021/07/18 04:14:34;;;;;;;10.85;8.55;;;;;;;25.13;100.00;100248.88;5017176;28;20101;-69
2021/07/18 04:17:20;;;;;;;16.30;8.95;;;;;;;24.45;100.00;100251.03;5016232;28;20034;-70
2021/07/18 04:20:07;;;;;;;16.30;8.40;;;;;;;24.80;100.00;100251.69;5016688;28;20053;-70
2021/07/18 04:22:52;;;;;;;13.98;8.32;;;;;;;25.11;100.00;100258.88;5017174;28;20041;-69
2021/07/18 04:25:38;;;;;;;11.90;7.93;;;;;;;24.73;100.00;100259.41;5016557;28;20132;-69
2021/07/18 04:28:24;;;;;;;14.55;8.10;;;;;;;24.98;100.00;100253.69;5004196;28;20466;-70
2021/07/18 04:31:10;;;;;;;12.70;8.05;;;;;;;24.98;100.00;100253.69;5016383;28;20030;-70
2021/07/18 04:33:56;;;;;;;13.02;8.13;;;;;;;25.23;100.00;100253.31;5016540;28;20029;-70
2021/07/18 04:36:41;;;;;;;11.75;8.10;;;;;;;24.95;100.00;100255.78;5017019;28;20485;-70
2021/07/18 04:39:27;;;;;;;11.63;7.60;;;;;;;25.05;100.00;100262.06;5016900;28;20034;-70
2021/07/18 04:42:13;;;;;;;12.07;7.85;;;;;;;25.36;100.00;100266.56;5016711;28;20033;-70
2021/07/18 04:44:59;;;;;;;15.00;7.75;;;;;;;25.25;100.00;100269.28;5016398;28;20113;-69
2021/07/18 04:47:48;;;;;;;14.18;8.13;;;;;;;25.53;100.00;100265.97;5016553;28;20026;-69
2021/07/18 04:50:34;;;;;;;12.98;7.90;;;;;;;25.95;100.00;100264.94;5016935;28;20442;-69
2021/07/18 04:53:19;;;;;;;12.77;7.85;;;;;;;25.84;100.00;100273.06;5015959;28;20175;-69
2021/07/18 04:56:05;;;;;;;12.15;7.35;;;;;;;25.73;100.00;100259.72;5016279;28;20420;-69
2021/07/18 04:58:51;;;;;;;13.82;7.95;;;;;;;25.60;100.00;100269.84;5015477;28;20030;-70
2021/07/18 05:01:37;;;;;;;16.20;8.10;;;;;;;25.62;100.00;100275.91;5015847;28;20095;-69
2021/07/18 05:04:24;;;;;;;15.02;8.50;;;;;;;25.77;100.00;100272.75;5016105;28;20049;-69
2021/07/18 05:07:10;;;;;;;15.40;8.65;;;;;;;25.84;100.00;100267.69;5016430;28;20022;-70
2021/07/18 05:09:55;;;;;;;15.27;8.38;;;;;;;25.71;100.00;100272.41;5016314;28;20045;-69
2021/07/18 05:12:42;;;;;;;18.80;8.63;;;;;;;25.85;100.00;100266.72;5016538;28;20030;-70
2021/07/18 05:15:28;;;;;;;11.88;8.63;;;;;;;25.71;100.00;100267.03;5016088;28;20076;-70
2021/07/18 05:18:14;;;;;;;13.27;8.95;;;;;;;26.34;100.00;100278.41;5016295;28;20104;-70
2021/07/18 05:21:00;;;;;;;14.90;8.68;;;;;;;25.91;100.00;100276.91;5016308;28;20037;-70
2021/07/18 05:23:46;;;;;;;14.15;9.07;;;;;;;26.14;100.00;100282.00;5016231;28;20354;-70
2021/07/18 05:26:31;;;;;;;19.85;9.77;;;;;;;25.88;100.00;100283.38;5015089;28;20034;-70
2021/07/18 05:29:18;;;;;;;15.07;9.27;;;;;;;25.72;100.00;100284.88;5015472;28;20045;-70
2021/07/18 05:32:04;;;;;;;21.27;10.32;;;;;;;26.00;100.00;100289.56;5016277;28;20033;-70
2021/07/18 05:34:50;;;;;;;19.58;10.50;;;;;;;26.15;100.00;100293.56;5001619;28;20036;-70
2021/07/18 05:37:36;;;;;;;20.25;10.15;;;;;;;26.16;100.00;100297.97;5015902;28;20036;-70
2021/07/18 05:40:22;;;;;;;14.00;10.02;;;;;;;26.28;100.00;100305.78;5015342;28;20041;-70
2021/07/18 05:43:08;;;;;;;14.85;9.90;;;;;;;27.03;100.00;100295.34;5015731;28;20343;-70
2021/07/18 05:45:53;;;;;;;14.95;10.13;;;;;;;26.85;100.00;100299.75;5015045;28;20025;-70
2021/07/18 05:48:39;;;;;;;13.25;10.90;;;;;;;26.86;100.00;100302.31;5000982;28;20026;-71
2021/07/18 05:51:25;;;;;;;18.52;10.85;;;;;;;26.91;100.00;100300.03;5015471;28;20099;-70
2021/07/18 05:54:11;;;;;;;13.52;10.50;;;;;;;26.68;100.00;100305.81;5000874;28;20097;-69
2021/07/18 05:56:56;;;;;;;15.95;10.50;;;;;;;26.80;100.00;100291.25;5014270;28;20034;-70
2021/07/18 05:59:42;;;;;;;16.05;10.65;;;;;;;26.77;100.00;100295.03;5014444;28;20343;-69
2021/07/18 06:02:28;;;;;;;24.13;11.65;;;;;;;26.71;100.00;100292.06;5014913;28;20405;-69
2021/07/18 06:05:14;;;;;;;14.63;10.88;;;;;;;26.75;100.00;100282.72;5014808;28;20450;-70
2021/07/18 06:07:59;;;;;;;15.35;10.70;;;;;;;26.69;100.00;100288.69;5015255;28;20060;-70
2021/07/18 06:10:45;;;;;;;20.50;11.40;;;;;;;26.86;100.00;100285.31;5013994;28;20022;-70
2021/07/18 06:13:31;;;;;;;17.30;11.40;;;;;;;26.88;100.00;100289.53;5015048;28;20399;-69
2021/07/18 06:16:18;;;;;;;15.30;11.25;;;;;;;27.04;100.00;100292.53;5013962;28;20053;-71
2021/07/18 06:19:03;;;;;;;19.20;10.88;;;;;;;27.29;100.00;100285.78;5014654;28;20064;-70
2021/07/18 06:21:49;;;;;;;20.25;11.93;;;;;;;27.48;100.00;100286.59;5013986;28;20421;-69
2021/07/18 06:24:35;;;;;;;20.02;12.90;;;;;;;27.66;100.00;100292.09;5014558;28;20045;-70
2021/07/18 06:27:21;;;;;;;21.58;13.48;;;;;;;27.83;100.00;100290.50;5014982;28;20026;-70
2021/07/18 06:30:09;;;;;;;21.83;12.57;;;;;;;27.99;100.00;100298.81;5000163;28;20033;-70
2021/07/18 06:32:54;;;;;;;24.08;13.43;;;;;;;27.85;100.00;100292.06;5014670;28;20026;-71
2021/07/18 06:35:40;;;;;;;20.88;13.23;;;;;;;28.14;100.00;100295.50;5014465;28;20107;-70
2021/07/18 06:38:26;;;;;;;33.15;13.48;;;;;;;28.29;100.00;100301.25;5014872;28;20018;-70
2021/07/18 06:41:12;;;;;;;29.27;14.35;;;;;;;28.42;100.00;100293.69;5000692;28;20022;-70
2021/07/18 06:43:58;;;;;;;22.92;12.60;;;;;;;28.61;100.00;100290.88;5014810;28;20021;-71
2021/07/18 06:46:44;;;;;;;26.92;12.65;;;;;;;28.35;100.00;100290.72;5014707;28;20377;-70
2021/07/18 06:49:30;;;;;;;21.00;12.45;;;;;;;28.58;100.00;100280.41;5014605;28;20461;-70
2021/07/18 06:52:16;;;;;;;24.13;12.60;;;;;;;28.48;100.00;100288.53;5014469;28;20026;-70
2021/07/18 06:55:03;;;;;;;20.90;13.80;;;;;;;29.04;100.00;100281.09;5000147;28;20092;-70
2021/07/18 06:57:50;;;;;;;18.63;12.68;;;;;;;28.77;100.00;100283.81;5014635;28;20018;-70
2021/07/18 07:00:36;;;;;;;23.00;13.18;;;;;;;28.62;100.00;100279.97;5015073;28;20041;-69
2021/07/18 07:03:22;;;;;;;24.25;13.75;;;;;;;28.82;100.00;100278.81;5014850;28;20026;-69
2021/07/18 07:06:07;;;;;;;22.15;14.13;;;;;;;28.50;100.00;100278.47;5014280;28;20068;-69
2021/07/18 07:08:53;;;;;;;23.88;13.63;;;;;;;28.73;100.00;100271.63;5014672;28;20109;-70
2021/07/18 07:11:39;;;;;;;30.52;14.10;;;;;;;29.03;100.00;100268.59;5013625;28;20420;-69
2021/07/18 07:14:25;;;;;;;27.52;13.98;;;;;;;29.22;100.00;100271.16;5000125;28;20038;-70
2021/07/18 07:17:11;;;;;;;25.60;13.48;;;;;;;29.43;100.00;100262.69;5014093;28;20026;-70
2021/07/18 07:19:56;;;;;;;23.55;12.73;;;;;;;29.63;100.00;100273.19;5014754;28;20134;-70
2021/07/18 07:22:42;;;;;;;19.60;12.23;;;;;;;29.86;100.00;100266.22;5015393;28;20099;-70
2021/07/18 07:25:28;;;;;;;20.13;11.80;;;;;;;30.22;100.00;100264.25;5018238;28;20087;-70
2021/07/18 07:28:14;;;;;;;15.65;12.20;;;;;;;30.40;100.00;100268.53;5017508;28;20041;-70
2021/07/18 07:31:00;;;;;;;21.27;13.38;;;;;;;30.62;100.00;100265.22;5004042;28;20033;-70
2021/07/18 07:33:46;;;;;;;23.08;13.63;;;;;;;30.73;100.00;100267.66;5003833;28;20460;-71
2021/07/18 07:36:32;;;;;;;28.90;13.18;;;;;;;30.96;100.00;100265.13;5017926;28;20041;-70
2021/07/18 07:39:18;;;;;;;16.88;12.30;;;;;;;31.37;100.00;100271.47;5017715;28;20095;-70
2021/07/18 07:42:04;;;;;;;14.93;11.27;;;;;;;31.18;100.00;100259.09;5003014;28;20033;-70
2021/07/18 07:44:50;;;;;;;19.98;11.45;;;;;;;31.59;100.00;100268.91;5003640;28;20056;-70
2021/07/18 07:47:38;;;;;;;21.52;13.27;;;;;;;31.15;100.00;100262.13;5016839;28;20026;-70
2021/07/18 07:50:24;;;;;;;17.98;12.10;;;;;;;31.17;100.00;100263.63;5017437;28;20044;-70
2021/07/18 07:53:09;;;;;;;15.43;11.70;;;;;;;31.67;100.00;100266.19;5017297;28;20481;-70
2021/07/18 07:55:55;;;;;;;19.65;11.80;;;;;;;31.99;100.00;100270.69;5017096;28;20083;-70
2021/07/18 07:58:41;;;;;;;17.75;11.68;;;;;;;32.26;100.00;100272.97;5017193;28;20117;-70
2021/07/18 08:01:27;;;;;;;20.42;11.50;;;;;;;32.35;100.00;100274.66;5017224;28;20033;-70
2021/07/18 08:04:12;;;;;;;26.45;11.50;;;;;;;32.67;100.00;100263.66;5016472;28;20030;-70
2021/07/18 08:06:58;;;;;;;20.98;10.82;;;;;;;32.32;100.00;100267.72;5016964;28;20030;-70
2021/07/18 08:09:44;;;;;;;21.65;10.38;;;;;;;32.80;100.00;100274.75;5017002;28;20098;-70
2021/07/18 08:12:30;;;;;;;25.42;11.25;;;;;;;32.72;100.00;100261.22;5017187;28;20442;-71
2021/07/18 08:15:17;;;;;;;21.17;12.00;;;;;;;32.74;100.00;100261.91;5017259;28;20382;-70
2021/07/18 08:18:04;;;;;;;21.55;12.35;;;;;;;33.41;100.00;100263.81;5016735;28;20022;-71
2021/07/18 08:20:49;;;;;;;22.30;12.70;;;;;;;33.09;100.00;100256.75;5017396;28;20113;-70
2021/07/18 08:23:36;;;;;;;17.60;12.02;;;;;;;33.38;100.00;100261.47;5016590;28;20156;-71
2021/07/18 08:26:22;;;;;;;19.00;11.95;;;;;;;33.34;100.00;100263.72;5016854;28;20045;-70
2021/07/18 08:29:08;;;;;;;21.85;12.55;;;;;;;33.69;100.00;100267.63;5016921;28;20389;-70
2021/07/18 08:32:02;;;;;;;20.20;11.77;;;;;;;34.19;100.00;100259.63;5017031;28;20446;-71
2021/07/18 08:34:48;;;;;;;19.83;12.45;;;;;;;34.00;100.00;100261.00;5015671;28;20458;-70
2021/07/18 08:37:34;;;;;;;26.33;11.95;;;;;;;33.72;100.00;100264.53;5017081;28;20026;-71
2021/07/18 08:40:20;;;;;;;22.48;12.25;;;;;;;33.79;100.00;100265.50;5016453;28;20030;-70
2021/07/18 08:43:06;;;;;;;23.13;11.15;;;;;;;34.02;100.00;100268.97;5016034;28;20362;-71
2021/07/18 08:45:52;;;;;;;19.38;11.88;;;;;;;34.55;97.96;100268.72;5016309;28;20041;-70
2021/07/18 08:48:38;;;;;;;20.23;11.60;;;;;;;34.73;96.09;100267.25;5016338;28;20121;-71
2021/07/18 08:51:24;;;;;;;16.63;12.07;;;;;;;34.15;96.40;100261.03;5016678;28;20057;-70
2021/07/18 08:54:10;;;;;;;18.92;11.60;;;;;;;33.90;95.11;100257.75;5016320;28;20083;-70
2021/07/18 08:57:00;;;;;;;19.92;11.10;;;;;;;33.98;86.72;100252.22;5015408;28;20033;-70
2021/07/18 08:59:46;;;;;;;17.88;11.48;;;;;;;34.73;90.01;100255.50;5002240;28;20124;-70
2021/07/18 09:02:34;;;;;;;20.40;11.95;;;;;;;35.16;91.87;100257.25;5016367;28;20351;-71
2021/07/18 09:05:20;;;;;;;16.10;11.48;;;;;;;34.64;95.21;100253.94;5015849;28;20046;-70
2021/07/18 09:08:06;;;;;;;19.10;11.63;;;;;;;34.61;97.14;100254.31;5015833;28;20120;-70
2021/07/18 09:10:52;;;;;;;16.73;11.35;;;;;;;34.32;94.55;100247.03;5015271;28;20034;-70
2021/07/18 09:13:38;;;;;;;18.40;11.60;;;;;;;34.70;88.22;100243.13;5015642;28;20461;-70
2021/07/18 09:16:33;;;;;;;20.30;11.43;;;;;;;34.89;95.86;100247.13;5015621;28;20069;-70
2021/07/18 09:19:21;;;;;;;17.48;11.88;;;;;;;34.54;96.15;100247.94;5015673;28;20077;-70
2021/07/18 09:22:10;;;;;;;20.42;11.30;;;;;;;33.57;99.64;100236.50;5001902;28;20034;-71
2021/07/18 09:25:00;;;;;;;22.48;10.93;;;;;;;34.61;94.73;100235.25;5015785;28;20040;-70
2021/07/18 09:27:45;;;;;;;18.67;10.98;;;;;;;34.88;90.34;100227.22;5015984;28;20065;-70
2021/07/18 09:30:32;;;;;;;14.48;10.43;;;;;;;35.24;86.78;100227.16;5015042;28;20064;-70
2021/07/18 09:33:26;;;;;;;14.90;9.88;;;;;;;35.53;85.02;100231.59;5002348;28;20021;-70
2021/07/18 09:36:13;;;;;;;22.48;9.63;;;;;;;35.44;83.87;100224.59;5002492;28;20037;-70
2021/07/18 09:39:13;;;;;;;13.15;9.73;;;;;;;35.25;81.22;100228.81;5016665;28;20029;-71
2021/07/18 09:41:59;;;;;;;16.75;9.63;;;;;;;35.28;80.85;100222.13;5015695;28;20026;-70
2021/07/18 09:44:45;;;;;;;15.07;9.27;;;;;;;34.82;71.23;100218.97;5015358;28;20069;-71
2021/07/18 09:47:31;;;;;;;15.85;9.18;;;;;;;35.09;70.24;100215.47;5014337;28;20081;-71
2021/07/18 09:50:18;;;;;;;16.58;9.10;;;;;;;34.72;70.02;100208.38;5015838;28;20415;-71
2021/07/18 09:53:14;;;;;;;16.70;9.30;;;;;;;34.32;69.41;100211.69;5014745;28;20092;-71
2021/07/18 09:56:10;;;;;;;14.40;9.63;;;;;;;34.20;69.69;100205.00;5002239;28;20068;-70
2021/07/18 09:58:57;;;;;;;14.55;8.75;;;;;;;35.06;67.11;100207.69;5015129;28;20404;-69
2021/07/18 10:01:54;;;;;;;15.45;9.23;;;;;;;34.77;65.90;100199.63;5014884;28;20450;-70
2021/07/18 10:04:40;;;;;;;17.63;9.05;;;;;;;34.59;67.87;100202.78;5015482;28;20034;-71
2021/07/18 10:07:35;;;;;;;22.75;9.60;;;;;;;34.68;64.10;100200.81;5014706;28;20420;-71
2021/07/18 10:10:21;;;;;;;17.45;8.85;;;;;;;34.16;63.20;100200.97;5014913;28;20335;-70
2021/07/18 10:13:08;;;;;;;12.80;8.40;;;;;;;34.05;62.71;100197.91;5015580;28;20416;-71
2021/07/18 10:15:54;;;;;;;15.52;8.38;;;;;;;34.40;62.53;100199.84;5014461;28;20040;-71
2021/07/18 10:18:44;;;;;;;15.20;8.10;;;;;;;34.45;61.92;100200.97;5014821;28;20049;-71
2021/07/18 10:21:30;;;;;;;15.75;8.82;;;;;;;34.28;63.40;100195.91;5002207;28;20087;-71
2021/07/18 10:24:17;;;;;;;16.70;8.60;;;;;;;34.38;62.40;100200.03;5015839;28;20500;-71
2021/07/18 10:27:04;;;;;;;14.20;8.73;;;;;;;34.52;61.69;100195.59;5014221;28;20026;-71
2021/07/18 10:29:53;;;;;;;14.50;8.23;;;;;;;34.69;62.33;100194.31;5015321;28;20465;-71
2021/07/18 10:32:40;;;;;;;14.10;8.63;;;;;;;34.39;60.54;100198.19;5015279;28;20376;-71
2021/07/18 10:35:26;;;;;;;13.80;8.40;;;;;;;34.29;58.50;100184.84;5002118;28;20037;-71
2021/07/18 10:38:18;;;;;;;14.55;7.53;;;;;;;34.66;58.25;100202.84;5014806;28;20112;-70
2021/07/18 10:41:04;;;;;;;9.07;7.43;;;;;;;34.62;57.40;100183.38;5015298;28;20446;-70
2021/07/18 10:43:50;;;;;;;13.38;8.27;;;;;;;34.90;58.17;100199.78;5014366;28;20065;-69
2021/07/18 10:46:42;;;;;;;16.10;8.13;;;;;;;35.07;57.09;100195.75;5014577;28;20026;-71
2021/07/18 10:50:00;;;;;;;14.30;8.23;;;;;;;35.40;55.82;100190.63;5014638;28;20169;-71
2021/07/18 10:52:46;;;;;;;16.40;8.57;;;;;;;34.97;55.09;100193.38;4983333;28;20029;-70
2021/07/18 10:55:37;;;;;;;13.80;8.45;;;;;;;34.95;53.75;100191.88;5014757;28;20030;-70
2021/07/18 10:58:38;;;;;;;14.45;7.68;;;;;;;35.31;49.99;100187.19;5017554;28;20034;-70
2021/07/18 11:01:23;;;;;;;12.15;7.70;;;;;;;35.58;51.25;100186.34;5018530;28;20056;-70
2021/07/18 11:04:48;;;;;;;16.45;7.57;;;;;;;35.70;50.69;100183.88;5018425;28;20116;-71
2021/07/18 11:07:36;;;;;;;12.68;7.45;;;;;;;35.82;51.66;100182.31;5018796;28;20030;-71
2021/07/18 11:10:24;;;;;;;19.77;7.22;;;;;;;35.33;50.20;100174.22;5017564;28;20301;-71
2021/07/18 11:13:09;;;;;;;17.60;6.80;;;;;;;35.83;45.24;100181.28;5017918;28;20026;-71
2021/07/18 11:15:55;;;;;;;7.22;5.63;;;;;;;36.37;43.29;100184.91;5017926;28;20057;-71
2021/07/18 11:18:42;;;;;;;15.70;6.40;;;;;;;36.45;43.70;100179.25;5005458;28;20057;-70
2021/07/18 11:21:30;;;;;;;13.18;6.30;;;;;;;36.39;43.11;100183.66;5018526;28;20029;-70
2021/07/18 11:24:55;;;;;;;10.43;5.88;;;;;;;36.22;42.46;100176.88;5017225;28;20029;-71
2021/07/18 11:27:47;;;;;;;12.32;6.57;;;;;;;35.76;44.41;100181.25;5018070;28;20026;-71
2021/07/18 11:30:40;;;;;;;10.07;6.38;;;;;;;35.84;46.05;100174.78;5018450;28;20052;-71
2021/07/18 11:33:27;;;;;;;11.30;6.75;;;;;;;36.16;46.09;100165.91;5004550;28;20454;-70
2021/07/18 11:36:16;;;;;;;10.50;6.22;;;;;;;36.10;43.08;100161.25;5016692;28;20029;-70
2021/07/18 11:39:16;;;;;;;9.27;6.10;;;;;;;36.00;44.05;100166.25;5017730;28;20026;-70
2021/07/18 11:42:04;;;;;;;9.57;6.05;;;;;;;36.25;47.78;100153.78;5018233;28;20036;-70
2021/07/18 11:44:50;;;;;;;11.32;5.97;;;;;;;35.77;48.16;100158.38;5018233;28;20045;-70
2021/07/18 11:47:36;;;;;;;12.90;6.18;;;;;;;36.21;43.46;100157.94;5017930;28;20028;-70
2021/07/18 11:50:22;;;;;;;11.88;6.25;;;;;;;36.17;42.23;100159.41;5017563;28;20049;-71
2021/07/18 11:53:07;;;;;;;11.20;6.28;;;;;;;36.21;41.52;100155.22;5017882;28;20358;-72
2021/07/18 11:55:53;;;;;;;42.15;7.65;;;;;;;36.35;41.22;100152.34;5018126;28;20104;-71
2021/07/18 11:58:39;;;;;;;11.88;5.90;;;;;;;36.43;40.67;100145.88;5017343;28;20106;-72
2021/07/18 12:01:26;;;;;;;9.73;6.47;;;;;;;36.81;41.62;100149.75;5017379;28;20084;-73
2021/07/18 12:04:24;;;;;;;12.13;6.55;;;;;;;36.11;42.47;100147.41;5017050;28;20370;-71
2021/07/18 12:07:11;;;;;;;11.63;6.45;;;;;;;36.63;41.81;100144.84;5017572;28;20438;-71
2021/07/18 12:09:57;;;;;;;11.05;6.28;;;;;;;36.37;41.68;100143.97;5015809;28;20122;-71
2021/07/18 12:12:49;;;;;;;13.45;6.35;;;;;;;36.27;42.50;100143.53;5004570;28;20092;-71
2021/07/18 12:15:35;;;;;;;10.60;6.40;;;;;;;36.80;42.26;100148.88;5017181;28;20454;-71
2021/07/18 12:18:21;;;;;;;12.50;6.68;;;;;;;37.17;42.59;100139.28;5017370;28;20370;-72
2021/07/18 12:21:20;;;;;;;10.90;6.85;;;;;;;37.73;40.22;100152.22;5017217;28;20091;-71
2021/07/18 12:24:15;;;;;;;11.68;6.45;;;;;;;36.98;40.10;100145.53;5016810;28;20064;-71
2021/07/18 12:27:04;;;;;;;10.13;6.90;;;;;;;36.64;40.39;100149.25;5016203;28;20040;-71
2021/07/18 12:29:58;;;;;;;11.10;7.93;;;;;;;36.52;41.66;100131.00;5017245;28;20328;-71
2021/07/18 12:32:44;;;;;;;9.20;7.00;;;;;;;36.63;42.81;100139.41;5017487;28;20437;-71
2021/07/18 12:35:30;;;;;;;11.00;6.90;;;;;;;36.61;42.73;100137.94;5016235;28;20045;-71
2021/07/18 12:38:20;;;;;;;11.43;7.18;;;;;;;37.09;43.13;100143.03;5016535;28;20156;-71
2021/07/18 12:41:06;;;;;;;8.88;7.00;;;;;;;37.18;41.77;100136.34;5016451;28;20041;-71